createdAt,value
2018-05-27T00:02:09.296Z,7.63
2018-05-27T00:05:13.323Z,5.90
2018-05-27T00:08:16.753Z,5.07
2018-05-27T00:11:20.016Z,9.05
2018-05-27T00:14:24.050Z,11.57
2018-05-27T00:17:27.315Z,5.47
2018-05-27T00:20:31.466Z,4.97
2018-05-27T00:23:34.728Z,3.57
2018-05-27T00:26:37.989Z,3.97
2018-05-27T00:29:41.254Z,3.20
2018-05-27T00:32:44.532Z,3.23
2018-05-27T00:35:48.555Z,3.97
2018-05-27T00:38:51.822Z,3.57
2018-05-27T00:41:55.156Z,3.90
2018-05-27T00:44:58.413Z,3.80
2018-05-27T00:48:02.458Z,3.97
2018-05-27T00:51:06.475Z,3.63
2018-05-27T00:54:09.734Z,3.87
2018-05-27T00:57:14.539Z,3.87
2018-05-27T01:00:17.812Z,4.10
2018-05-27T01:03:21.073Z,4.50
2018-05-27T01:06:24.459Z,4.40
2018-05-27T01:09:27.798Z,4.20
2018-05-27T01:12:31.820Z,4.47
2018-05-27T01:15:35.088Z,4.70
2018-05-27T01:18:39.110Z,4.13
2018-05-27T01:21:43.139Z,4.17
2018-05-27T01:24:46.399Z,4.17
2018-05-27T01:27:49.674Z,5.20
2018-05-27T01:30:52.934Z,4.60
2018-05-27T01:33:56.190Z,3.97
2018-05-27T01:36:59.464Z,3.80
2018-05-27T01:40:02.717Z,3.70
2018-05-27T01:43:05.981Z,3.90
2018-05-27T01:46:09.241Z,3.33
2018-05-27T01:49:12.590Z,3.67
2018-05-27T01:52:15.847Z,4.27
2018-05-27T01:55:19.881Z,3.67
2018-05-27T01:58:23.155Z,3.87
2018-05-27T02:01:26.421Z,3.83
2018-05-27T02:04:29.672Z,3.40
2018-05-27T02:07:32.930Z,2.90
2018-05-27T02:10:36.193Z,3.70
2018-05-27T02:13:39.447Z,3.33
2018-05-27T02:16:43.902Z,3.27
2018-05-27T02:19:47.158Z,3.60
2018-05-27T02:22:50.413Z,3.20
2018-05-27T02:25:53.673Z,3.10
2018-05-27T02:28:57.690Z,3.67
2018-05-27T02:32:01.053Z,3.10
2018-05-27T02:35:04.307Z,3.30
2018-05-27T02:38:07.594Z,3.63
2018-05-27T02:41:10.845Z,3.70
2018-05-27T02:44:14.112Z,3.67
2018-05-27T02:47:17.361Z,3.50
2018-05-27T02:50:21.390Z,3.23
2018-05-27T02:53:25.541Z,3.30
2018-05-27T02:56:28.994Z,3.33
2018-05-27T02:59:32.262Z,3.70
2018-05-27T03:02:35.521Z,4.13
2018-05-27T03:05:38.789Z,4.27
2018-05-27T03:08:42.841Z,3.30
2018-05-27T03:11:46.122Z,3.40
2018-05-27T03:14:49.409Z,3.47
2018-05-27T03:17:53.425Z,2.97
2018-05-27T03:20:57.449Z,3.60
2018-05-27T03:24:00.713Z,3.03
2018-05-27T03:27:04.743Z,3.67
2018-05-27T03:30:08.774Z,3.57
2018-05-27T03:33:12.028Z,3.37
2018-05-27T03:36:15.296Z,3.30
2018-05-27T03:39:18.550Z,3.27
2018-05-27T03:42:22.570Z,3.57
2018-05-27T03:45:25.829Z,3.27
2018-05-27T03:48:29.140Z,3.27
2018-05-27T03:51:33.170Z,3.20
2018-05-27T03:54:37.202Z,3.00
2018-05-27T03:57:40.451Z,3.60
2018-05-27T04:00:45.314Z,3.50
2018-05-27T04:07:48.196Z,3.57
2018-05-27T04:10:51.537Z,3.50
2018-05-27T04:13:55.553Z,3.60
2018-05-27T04:17:00.619Z,3.47
2018-05-27T04:20:03.892Z,3.20
2018-05-27T04:23:08.718Z,3.00
2018-05-27T04:26:12.737Z,3.23
2018-05-27T04:29:16.019Z,3.10
2018-05-27T04:32:20.046Z,3.20
2018-05-27T04:35:24.067Z,3.23
2018-05-27T04:38:27.346Z,2.92
2018-05-27T04:41:30.600Z,3.10
2018-05-27T04:44:33.864Z,3.07
2018-05-27T04:47:37.895Z,2.80
2018-05-27T04:50:41.163Z,2.90
2018-05-27T04:53:45.183Z,2.87
2018-05-27T04:56:48.451Z,3.70
2018-05-27T05:00:05.618Z,3.07
2018-05-27T05:03:09.532Z,3.20
2018-05-27T05:06:12.815Z,3.20
2018-05-27T05:09:16.061Z,3.00
2018-05-27T05:12:19.323Z,2.78
2018-05-27T05:15:22.598Z,3.17
2018-05-27T05:18:26.632Z,2.70
2018-05-27T05:21:29.888Z,3.17
2018-05-27T05:24:33.906Z,2.93
2018-05-27T05:27:37.178Z,2.83
2018-05-27T05:30:40.439Z,3.00
2018-05-27T05:33:43.698Z,2.57
2018-05-27T05:36:47.730Z,3.53
2018-05-27T05:39:51.006Z,2.90
2018-05-27T05:42:55.308Z,2.83
2018-05-27T05:45:58.570Z,3.13
2018-05-27T05:49:01.961Z,2.37
2018-05-27T05:52:05.318Z,3.10
2018-05-27T05:55:08.591Z,2.57
2018-05-27T05:58:11.957Z,2.57
2018-05-27T06:01:15.381Z,2.80
2018-05-27T06:04:18.646Z,2.83
2018-05-27T06:07:21.908Z,2.73
2018-05-27T06:10:25.149Z,3.20
2018-05-27T06:13:28.511Z,3.05
2018-05-27T06:16:32.662Z,2.33
2018-05-27T06:19:35.979Z,3.37
2018-05-27T06:22:40.311Z,2.70
2018-05-27T06:25:43.934Z,3.17
2018-05-27T06:28:47.505Z,3.70
2018-05-27T06:31:50.767Z,3.57
2018-05-27T06:34:54.890Z,2.87
2018-05-27T06:37:58.933Z,2.90
2018-05-27T06:41:02.306Z,2.90
2018-05-27T06:44:06.397Z,3.17
2018-05-27T06:47:09.659Z,2.83
2018-05-27T06:50:13.030Z,3.40
2018-05-27T06:53:16.297Z,3.00
2018-05-27T06:56:19.554Z,2.80
2018-05-27T06:59:23.594Z,3.00
2018-05-27T07:02:26.861Z,2.77
2018-05-27T07:05:30.894Z,2.83
2018-05-27T07:08:34.149Z,2.57
2018-05-27T07:11:37.464Z,2.95
2018-05-27T07:14:41.435Z,2.37
2018-05-27T07:17:45.455Z,3.30
2018-05-27T07:20:49.492Z,2.70
2018-05-27T07:23:52.773Z,2.57
2018-05-27T07:26:56.795Z,2.80
2018-05-27T07:30:00.052Z,2.60
2018-05-27T07:33:12.401Z,2.40
2018-05-27T07:36:15.659Z,2.53
2018-05-27T07:39:18.927Z,2.43
2018-05-27T07:42:22.205Z,2.60
2018-05-27T07:45:25.472Z,2.87
2018-05-27T07:48:29.498Z,2.50
2018-05-27T07:51:32.782Z,2.50
2018-05-27T07:54:36.808Z,2.63
2018-05-27T07:57:40.852Z,2.67
2018-05-27T08:00:44.113Z,3.00
2018-05-27T08:03:48.198Z,2.87
2018-05-27T08:06:51.468Z,3.17
2018-05-27T08:09:54.720Z,3.50
2018-05-27T08:12:58.754Z,3.60
2018-05-27T08:16:02.225Z,3.70
2018-05-27T08:19:05.430Z,3.50
2018-05-27T08:22:11.091Z,3.07
2018-05-27T08:25:15.119Z,3.03
2018-05-27T08:28:18.924Z,3.17
2018-05-27T08:31:22.271Z,2.77
2018-05-27T08:34:26.346Z,2.50
2018-05-27T08:37:29.740Z,2.60
2018-05-27T08:40:33.015Z,2.67
2018-05-27T08:43:37.054Z,2.40
2018-05-27T08:46:40.318Z,2.30
2018-05-27T08:49:43.633Z,2.57
2018-05-27T08:52:47.141Z,2.10
2018-05-27T08:55:50.433Z,2.37
2018-05-27T08:58:54.496Z,2.40
2018-05-27T09:01:58.159Z,2.50
2018-05-27T09:05:02.355Z,2.67
2018-05-27T09:08:05.782Z,2.37
2018-05-27T09:11:10.316Z,2.33
2018-05-27T09:14:13.601Z,2.20
2018-05-27T09:17:16.992Z,2.27
2018-05-27T09:20:20.237Z,2.43
2018-05-27T09:23:23.653Z,2.20
2018-05-27T09:26:27.106Z,2.60
2018-05-27T09:29:45.963Z,2.40
2018-05-27T09:33:10.844Z,2.30
2018-05-27T09:36:15.511Z,1.87
2018-05-27T09:39:18.833Z,2.07
2018-05-27T09:42:22.949Z,1.97
2018-05-27T09:45:26.251Z,2.43
2018-05-27T09:48:30.528Z,1.80
2018-05-27T09:51:34.553Z,1.97
2018-05-27T09:54:37.938Z,2.10
2018-05-27T09:57:42.057Z,1.80
2018-05-27T10:00:46.089Z,2.10
2018-05-27T10:03:49.474Z,3.37
2018-05-27T10:06:53.548Z,1.67
2018-05-27T10:09:57.178Z,1.57
2018-05-27T10:13:01.232Z,1.73
2018-05-27T10:16:04.504Z,1.97
2018-05-27T10:19:09.298Z,1.90
2018-05-27T10:22:12.578Z,2.13
2018-05-27T10:25:15.942Z,1.63
2018-05-27T10:28:19.228Z,1.57
2018-05-27T10:31:23.269Z,1.47
2018-05-27T10:34:26.870Z,1.50
2018-05-27T10:37:30.318Z,2.10
2018-05-27T10:40:33.699Z,1.80
2018-05-27T10:43:37.057Z,1.90
2018-05-27T10:46:40.474Z,1.93
2018-05-27T10:49:43.777Z,1.53
2018-05-27T10:52:48.198Z,1.77
2018-05-27T10:55:51.605Z,1.80
2018-05-27T10:58:55.141Z,1.70
2018-05-27T11:02:00.023Z,1.70
2018-05-27T11:05:03.601Z,1.90
2018-05-27T11:08:06.930Z,1.53
2018-05-27T11:11:10.392Z,1.97
2018-05-27T11:14:13.725Z,2.30
2018-05-27T11:17:17.019Z,1.73
2018-05-27T11:20:21.037Z,1.80
2018-05-27T11:23:24.617Z,2.00
2018-05-27T11:26:27.205Z,1.83
2018-05-27T11:29:31.308Z,1.50
2018-05-27T11:32:34.559Z,1.70
2018-05-27T11:35:38.014Z,2.03
2018-05-27T11:38:41.369Z,1.83
2018-05-27T11:41:44.665Z,1.40
2018-05-27T11:44:48.270Z,1.77
2018-05-27T11:47:51.604Z,2.00
2018-05-27T11:50:54.873Z,2.00
2018-05-27T11:53:58.125Z,1.80
2018-05-27T11:57:02.165Z,1.63
2018-05-27T12:00:05.546Z,1.90
2018-05-27T12:03:09.579Z,2.00
2018-05-27T12:06:13.150Z,1.87
2018-05-27T12:09:17.252Z,1.53
2018-05-27T12:12:20.493Z,1.93
2018-05-27T12:15:23.763Z,2.30
2018-05-27T12:18:27.798Z,2.30
2018-05-27T12:21:31.054Z,1.80
2018-05-27T12:24:34.312Z,2.20
2018-05-27T12:27:37.896Z,2.47
2018-05-27T12:30:41.161Z,1.90
2018-05-27T12:33:44.617Z,2.47
2018-05-27T12:36:47.885Z,2.20
2018-05-27T12:39:52.088Z,2.13
2018-05-27T12:42:56.110Z,2.30
2018-05-27T12:46:00.163Z,1.80
2018-05-27T12:49:03.465Z,2.43
2018-05-27T12:52:06.799Z,2.60
2018-05-27T12:55:10.085Z,2.03
2018-05-27T12:58:13.368Z,2.53
2018-05-27T13:01:16.635Z,2.03
2018-05-27T13:04:19.908Z,2.37
2018-05-27T13:07:23.938Z,2.60
2018-05-27T13:10:27.187Z,2.30
2018-05-27T13:13:30.732Z,2.37
2018-05-27T13:16:34.875Z,2.50
2018-05-27T13:19:38.154Z,3.20
2018-05-27T13:22:42.178Z,2.77
2018-05-27T13:25:45.434Z,3.10
2018-05-27T13:28:48.720Z,3.00
2018-05-27T13:31:52.016Z,2.53
2018-05-27T13:34:55.267Z,3.07
2018-05-27T13:37:58.733Z,2.90
2018-05-27T13:41:02.772Z,2.63
2018-05-27T13:44:06.023Z,2.50
2018-05-27T13:47:09.305Z,2.60
2018-05-27T13:50:12.562Z,2.60
2018-05-27T13:53:15.879Z,2.60
2018-05-27T13:56:19.151Z,2.80
2018-05-27T13:59:23.203Z,2.50
2018-05-27T14:02:26.467Z,2.70
2018-05-27T14:05:30.509Z,2.83
2018-05-27T14:08:33.809Z,2.53
2018-05-27T14:11:37.087Z,2.30
2018-05-27T14:14:40.347Z,2.63
2018-05-27T14:17:43.633Z,2.90
2018-05-27T14:20:46.953Z,2.83
2018-05-27T14:23:50.927Z,4.80
2018-05-27T14:26:54.448Z,2.70
2018-05-27T14:29:58.541Z,2.60
2018-05-27T14:33:03.971Z,2.97
2018-05-27T14:36:07.388Z,2.50
2018-05-27T14:39:10.837Z,2.67
2018-05-27T14:42:14.131Z,2.87
2018-05-27T14:45:17.394Z,2.50
2018-05-27T14:48:20.668Z,2.83
2018-05-27T14:51:23.971Z,2.47
2018-05-27T14:54:27.238Z,2.70
2018-05-27T14:57:31.258Z,3.60
2018-05-27T15:00:37.263Z,2.47
2018-05-27T15:03:40.537Z,2.70
2018-05-27T15:06:43.849Z,2.20
2018-05-27T15:09:47.166Z,2.03
2018-05-27T15:12:50.424Z,2.10
2018-05-27T15:15:53.737Z,2.53
2018-05-27T15:18:57.005Z,1.87
2018-05-27T15:22:01.093Z,4.27
2018-05-27T15:25:04.398Z,4.03
2018-05-27T15:28:07.646Z,2.80
2018-05-27T15:31:10.905Z,2.95
2018-05-27T15:34:14.939Z,2.17
2018-05-27T15:37:18.256Z,2.07
2018-05-27T15:40:21.530Z,2.20
2018-05-27T15:43:24.832Z,1.80
2018-05-27T15:46:28.108Z,1.93
2018-05-27T15:49:32.140Z,2.20
2018-05-27T15:52:36.013Z,2.93
2018-05-27T15:55:39.333Z,1.93
2018-05-27T15:58:43.413Z,2.00
2018-05-27T16:01:46.668Z,2.23
2018-05-27T16:04:49.999Z,2.67
2018-05-27T16:07:53.261Z,2.50
2018-05-27T16:10:56.529Z,3.70
2018-05-27T16:14:00.545Z,3.43
2018-05-27T16:17:04.586Z,2.30
2018-05-27T16:20:08.822Z,2.10
2018-05-27T16:23:12.090Z,2.05
2018-05-27T16:26:16.105Z,2.20
2018-05-27T16:29:20.134Z,2.70
2018-05-27T16:32:23.445Z,2.50
2018-05-27T16:35:26.682Z,2.03
2018-05-27T16:38:30.008Z,2.30
2018-05-27T16:41:34.029Z,2.13
2018-05-27T16:44:38.071Z,2.00
2018-05-27T16:47:41.421Z,2.30
2018-05-27T16:50:44.794Z,3.90
2018-05-27T16:53:48.897Z,4.37
2018-05-27T16:56:52.148Z,2.00
2018-05-27T16:59:56.926Z,1.87
2018-05-27T17:03:00.244Z,2.00
2018-05-27T17:06:03.539Z,2.30
2018-05-27T17:09:07.665Z,2.10
2018-05-27T17:12:10.919Z,2.10
2018-05-27T17:15:14.213Z,1.93
2018-05-27T17:18:17.616Z,2.23
2018-05-27T17:21:20.889Z,2.00
2018-05-27T17:24:25.097Z,3.20
2018-05-27T17:27:29.148Z,3.10
2018-05-27T17:30:32.411Z,2.60
2018-05-27T17:33:36.442Z,2.70
2018-05-27T17:36:39.698Z,2.80
2018-05-27T17:39:42.966Z,2.87
2018-05-27T17:42:46.235Z,2.20
2018-05-27T17:45:49.509Z,2.13
2018-05-27T17:48:52.770Z,2.07
2018-05-27T17:51:56.036Z,2.13
2018-05-27T17:54:59.334Z,2.70
2018-05-27T17:58:02.601Z,2.53
2018-05-27T18:01:06.625Z,2.27
2018-05-27T18:04:10.644Z,2.23
2018-05-27T18:07:14.661Z,2.00
2018-05-27T18:10:17.922Z,2.40
2018-05-27T18:13:21.325Z,2.30
2018-05-27T18:16:24.586Z,2.30
2018-05-27T18:19:27.954Z,2.53
2018-05-27T18:22:31.976Z,2.40
2018-05-27T18:25:36.170Z,2.40
2018-05-27T18:28:39.418Z,2.63
2018-05-27T18:31:42.729Z,2.20
2018-05-27T18:34:45.960Z,2.63
2018-05-27T18:37:49.225Z,2.70
2018-05-27T18:40:52.484Z,2.73
2018-05-27T18:43:55.739Z,2.60
2018-05-27T18:46:58.983Z,2.60
2018-05-27T18:50:02.246Z,3.40
2018-05-27T18:53:06.393Z,4.50
2018-05-27T18:56:09.651Z,5.10
2018-05-27T18:59:12.911Z,5.47
2018-05-27T19:02:16.401Z,3.70
2018-05-27T19:05:19.694Z,2.43
2018-05-27T19:08:22.968Z,3.23
2018-05-27T19:11:27.137Z,3.05
2018-05-27T19:14:30.687Z,3.40
2018-05-27T19:17:34.901Z,3.10
2018-05-27T19:20:38.267Z,3.13
2018-05-27T19:23:42.346Z,2.90
2018-05-27T19:26:45.631Z,3.20
2018-05-27T19:29:49.031Z,3.57
2018-05-27T19:32:52.406Z,4.07
2018-05-27T19:35:56.498Z,3.83
2018-05-27T19:38:59.801Z,3.80
2018-05-27T19:42:03.064Z,3.43
2018-05-27T19:45:06.322Z,3.70
2018-05-27T19:48:10.342Z,4.17
2018-05-27T19:51:14.393Z,4.03
2018-05-27T19:54:17.661Z,4.47
2018-05-27T19:57:20.951Z,4.43
2018-05-27T20:00:24.987Z,5.70
2018-05-27T20:03:28.261Z,4.70
2018-05-27T20:06:32.279Z,4.67
2018-05-27T20:09:36.402Z,4.47
2018-05-27T20:12:39.674Z,4.40
2018-05-27T20:15:43.100Z,4.00
2018-05-27T20:18:47.217Z,3.60
2018-05-27T20:21:51.241Z,4.85
2018-05-27T20:24:54.528Z,4.30
2018-05-27T20:27:58.649Z,4.27
2018-05-27T20:31:01.904Z,3.87
2018-05-27T20:34:05.167Z,3.77
2018-05-27T20:37:08.444Z,4.53
2018-05-27T20:40:11.697Z,5.43
2018-05-27T20:43:15.722Z,5.17
2018-05-27T20:46:18.980Z,5.00
2018-05-27T20:49:22.261Z,4.57
2018-05-27T20:52:25.508Z,4.83
2018-05-27T20:55:28.803Z,4.00
2018-05-27T20:58:32.079Z,3.53
2018-05-27T21:01:35.435Z,3.93
2018-05-27T21:04:38.729Z,4.27
2018-05-27T21:07:41.991Z,4.20
2018-05-27T21:10:45.772Z,4.13
2018-05-27T21:13:50.666Z,3.97
2018-05-27T21:16:54.715Z,4.60
2018-05-27T21:19:59.333Z,4.53
2018-05-27T21:23:04.066Z,4.60
2018-05-27T21:26:08.574Z,5.20
2018-05-27T21:29:12.607Z,4.67
2018-05-27T21:32:15.855Z,4.37
2018-05-27T21:35:19.122Z,4.80
2018-05-27T21:38:22.383Z,4.87
2018-05-27T21:41:26.411Z,3.90
2018-05-27T21:44:29.661Z,3.97
2018-05-27T21:47:32.953Z,4.40
2018-05-27T21:50:37.225Z,3.80
2018-05-27T21:53:40.539Z,4.27
2018-05-27T21:56:43.818Z,4.20
2018-05-27T21:59:47.171Z,4.30
2018-05-27T22:02:50.426Z,4.20
2018-05-27T22:05:53.705Z,3.93
2018-05-27T22:08:57.724Z,4.43
2018-05-27T22:12:01.735Z,4.97
2018-05-27T22:15:05.522Z,4.77
2018-05-27T22:18:09.659Z,4.63
2018-05-27T22:21:13.679Z,4.43
2018-05-27T22:24:16.929Z,4.90
2018-05-27T22:27:20.182Z,4.47
2018-05-27T22:30:23.510Z,4.43
2018-05-27T22:33:26.768Z,4.20
2018-05-27T22:36:30.043Z,3.90
2018-05-27T22:39:34.078Z,4.07
2018-05-27T22:42:37.485Z,4.30
2018-05-27T22:45:40.757Z,4.87
2018-05-27T22:48:44.893Z,4.60
2018-05-27T22:51:48.156Z,5.23
2018-05-27T22:54:51.482Z,5.33
2018-05-27T22:57:55.504Z,5.83
2018-05-27T23:00:58.831Z,4.73
2018-05-27T23:04:02.075Z,4.40
2018-05-27T23:07:06.103Z,5.10
2018-05-27T23:10:10.124Z,4.50
2018-05-27T23:13:13.375Z,4.70
2018-05-27T23:16:16.632Z,4.40
2018-05-27T23:19:19.881Z,4.23
2018-05-27T23:22:23.196Z,4.00
2018-05-27T23:25:27.209Z,4.37
2018-05-27T23:28:31.235Z,4.00
2018-05-27T23:31:35.265Z,4.78
2018-05-27T23:34:38.556Z,4.40
2018-05-27T23:37:41.809Z,4.57
2018-05-27T23:40:45.069Z,4.73
2018-05-27T23:43:48.318Z,4.20
2018-05-27T23:46:52.456Z,4.33
2018-05-27T23:49:56.471Z,4.80
2018-05-27T23:52:59.878Z,4.93
2018-05-27T23:56:03.178Z,4.93
2018-05-27T23:59:06.428Z,4.23
